createdAt,value
2023-03-28T00:00:55.445Z,0
2023-03-28T00:03:07.735Z,0
2023-03-28T00:04:13.865Z,0
2023-03-28T00:05:20.035Z,0
2023-03-28T00:07:32.349Z,0
2023-03-28T00:09:44.586Z,0
2023-03-28T00:11:56.878Z,0
2023-03-28T00:13:03.022Z,0
2023-03-28T00:14:09.156Z,0
2023-03-28T00:15:14.318Z,0
2023-03-28T00:16:19.491Z,0
2023-03-28T00:17:24.662Z,0
2023-03-28T00:18:30.787Z,0
2023-03-28T00:19:36.938Z,0
2023-03-28T00:20:43.105Z,0
2023-03-28T00:21:49.249Z,0
2023-03-28T00:22:55.412Z,0
2023-03-28T00:24:01.524Z,0
2023-03-28T00:26:13.807Z,0
2023-03-28T00:27:19.940Z,0
2023-03-28T00:28:26.085Z,0
2023-03-28T00:29:32.286Z,0
2023-03-28T00:30:38.394Z,0
2023-03-28T00:31:44.638Z,0
2023-03-28T00:32:50.796Z,0
2023-03-28T00:33:56.960Z,0
2023-03-28T00:35:03.065Z,0
2023-03-28T00:36:09.218Z,0
2023-03-28T00:38:21.494Z,0
2023-03-28T00:39:27.652Z,0
2023-03-28T00:40:33.786Z,0
2023-03-28T00:42:46.140Z,0
2023-03-28T00:43:52.244Z,0
2023-03-28T00:44:58.358Z,0
2023-03-28T00:46:03.542Z,0
2023-03-28T00:47:09.675Z,0
2023-03-28T00:48:15.808Z,0
2023-03-28T00:49:21.955Z,0
2023-03-28T00:50:28.088Z,0
2023-03-28T00:51:34.236Z,0
2023-03-28T00:52:40.378Z,0
2023-03-28T00:53:46.562Z,0
2023-03-28T00:54:52.667Z,0
2023-03-28T00:55:58.816Z,0
2023-03-28T00:57:04.958Z,0
2023-03-28T00:59:17.244Z,0
2023-03-28T01:00:22.426Z,0
2023-03-28T01:01:28.554Z,0
2023-03-28T01:02:34.696Z,0
2023-03-28T01:03:40.826Z,0
2023-03-28T01:04:46.979Z,0
2023-03-28T01:05:52.168Z,0
2023-03-28T01:06:58.308Z,0
2023-03-28T01:08:03.448Z,0
2023-03-28T01:09:09.645Z,0
2023-03-28T01:10:15.789Z,0
2023-03-28T01:11:21.876Z,0
2023-03-28T01:12:28.015Z,0
2023-03-28T01:13:34.194Z,0
2023-03-28T01:15:46.436Z,0
2023-03-28T01:16:52.599Z,0
2023-03-28T01:17:58.734Z,0
2023-03-28T01:19:04.876Z,0
2023-03-28T01:20:11.014Z,0
2023-03-28T01:21:17.201Z,0
2023-03-28T01:22:22.370Z,0
2023-03-28T01:23:28.473Z,0
2023-03-28T01:24:34.628Z,0
2023-03-28T01:25:40.764Z,0
2023-03-28T01:26:46.900Z,0
2023-03-28T01:27:53.038Z,0
2023-03-28T01:28:59.188Z,0
2023-03-28T01:30:04.363Z,0
2023-03-28T01:32:15.654Z,0
2023-03-28T01:34:27.950Z,0
2023-03-28T01:35:34.101Z,0
2023-03-28T01:36:40.239Z,0
2023-03-28T01:37:46.382Z,0
2023-03-28T01:38:52.535Z,0
2023-03-28T01:41:04.812Z,0
2023-03-28T01:42:10.976Z,0
2023-03-28T01:43:17.084Z,0
2023-03-28T01:44:23.256Z,0
2023-03-28T01:45:28.472Z,0
2023-03-28T01:46:33.570Z,0
2023-03-28T01:48:45.856Z,0
2023-03-28T01:49:52.009Z,0
2023-03-28T01:50:58.147Z,0
2023-03-28T01:52:04.284Z,0
2023-03-28T01:53:10.435Z,0
2023-03-28T01:54:16.645Z,0
2023-03-28T01:55:22.773Z,0
2023-03-28T01:56:28.863Z,0
2023-03-28T01:57:35.010Z,0
2023-03-28T01:58:41.254Z,0
2023-03-28T02:00:53.438Z,0
2023-03-28T02:01:59.747Z,0
2023-03-28T02:03:06.010Z,0
2023-03-28T02:05:18.333Z,0
2023-03-28T02:06:24.454Z,0
2023-03-28T02:07:30.561Z,0
2023-03-28T02:08:36.713Z,0
2023-03-28T02:09:42.863Z,0
2023-03-28T02:10:48.993Z,0
2023-03-28T02:11:55.144Z,0
2023-03-28T02:14:07.438Z,0
2023-03-28T02:15:13.576Z,0
2023-03-28T02:16:19.736Z,0
2023-03-28T02:17:24.890Z,0
2023-03-28T02:18:31.013Z,0
2023-03-28T02:19:37.159Z,0
2023-03-28T02:21:49.465Z,0
2023-03-28T02:24:01.748Z,0
2023-03-28T02:25:07.934Z,0
2023-03-28T02:26:14.035Z,0
2023-03-28T02:27:20.179Z,0
2023-03-28T02:28:26.342Z,0
2023-03-28T02:30:38.602Z,0
2023-03-28T02:31:43.772Z,0
2023-03-28T02:32:49.921Z,0
2023-03-28T02:33:56.136Z,0
2023-03-28T02:35:02.210Z,0
2023-03-28T02:36:08.354Z,0
2023-03-28T02:38:20.631Z,0
2023-03-28T02:39:26.769Z,0
2023-03-28T02:40:33.006Z,0
2023-03-28T02:41:39.069Z,0
2023-03-28T02:42:45.205Z,0
2023-03-28T02:43:51.351Z,0
2023-03-28T02:44:57.508Z,0
2023-03-28T02:46:03.654Z,0
2023-03-28T02:47:08.791Z,0
2023-03-28T02:49:21.081Z,0
2023-03-28T02:50:27.231Z,0
2023-03-28T02:51:33.412Z,0
2023-03-28T02:52:39.513Z,0
2023-03-28T02:54:51.800Z,0
2023-03-28T02:55:57.955Z,0
2023-03-28T02:57:04.096Z,0
2023-03-28T02:58:10.249Z,0
2023-03-28T02:59:16.375Z,0
2023-03-28T03:00:22.579Z,0
2023-03-28T03:01:27.680Z,0
2023-03-28T03:02:33.836Z,0
2023-03-28T03:03:39.961Z,0
2023-03-28T03:04:46.113Z,0
2023-03-28T03:05:52.260Z,0
2023-03-28T03:06:58.394Z,0
2023-03-28T03:08:04.546Z,0
2023-03-28T03:09:10.684Z,0
2023-03-28T03:11:22.972Z,0
2023-03-28T03:12:29.164Z,0
2023-03-28T03:13:35.260Z,0
2023-03-28T03:14:41.412Z,0
2023-03-28T03:16:52.712Z,0
2023-03-28T03:17:58.847Z,0
2023-03-28T03:19:04.009Z,0
2023-03-28T03:20:10.160Z,0
2023-03-28T03:21:16.294Z,0
2023-03-28T03:22:22.485Z,0
2023-03-28T03:23:28.580Z,0
2023-03-28T03:24:34.738Z,0
2023-03-28T03:25:40.933Z,0
2023-03-28T03:27:53.160Z,0
2023-03-28T03:28:59.404Z,0
2023-03-28T03:30:05.494Z,0
2023-03-28T03:31:11.584Z,0
2023-03-28T03:32:17.730Z,0
2023-03-28T03:33:22.894Z,0
2023-03-28T03:34:29.042Z,0
2023-03-28T03:35:35.174Z,0
2023-03-28T03:36:41.346Z,0
2023-03-28T03:37:47.472Z,0
2023-03-28T03:38:53.659Z,0
2023-03-28T03:39:58.797Z,0
2023-03-28T03:41:04.017Z,0
2023-03-28T03:42:10.088Z,0
2023-03-28T03:44:22.386Z,0
2023-03-28T03:45:28.522Z,0
2023-03-28T03:46:34.668Z,0
2023-03-28T03:47:40.814Z,0
2023-03-28T03:48:46.951Z,0
2023-03-28T03:49:53.189Z,0
2023-03-28T03:50:59.245Z,0
2023-03-28T03:52:05.382Z,0
2023-03-28T03:53:11.528Z,0
2023-03-28T03:54:17.681Z,0
2023-03-28T03:55:22.826Z,0
2023-03-28T03:56:29.063Z,0
2023-03-28T03:57:35.121Z,0
2023-03-28T03:58:41.262Z,0
2023-03-28T04:00:53.674Z,0
2023-03-28T04:03:04.905Z,0
2023-03-28T04:04:10.078Z,0
2023-03-28T04:05:15.246Z,0
2023-03-28T04:06:21.331Z,0
2023-03-28T04:07:27.508Z,0
2023-03-28T04:08:33.647Z,0
2023-03-28T04:09:39.767Z,0
2023-03-28T04:10:45.920Z,0
2023-03-28T04:11:52.074Z,0
2023-03-28T04:12:58.209Z,0
2023-03-28T04:15:10.489Z,0
2023-03-28T04:17:22.798Z,0
2023-03-28T04:18:29.043Z,0
2023-03-28T04:19:34.072Z,0
2023-03-28T04:20:40.225Z,0
2023-03-28T04:21:46.356Z,0
2023-03-28T04:22:52.514Z,0
2023-03-28T04:23:58.661Z,0
2023-03-28T04:25:04.887Z,0
2023-03-28T04:26:10.948Z,0
2023-03-28T04:27:17.088Z,0
2023-03-28T04:28:23.233Z,0
2023-03-28T04:29:29.375Z,0
2023-03-28T04:31:41.672Z,0
2023-03-28T04:33:54.004Z,0
2023-03-28T04:34:59.151Z,0
2023-03-28T04:36:05.310Z,0
2023-03-28T04:37:11.449Z,0
2023-03-28T04:38:17.557Z,0
2023-03-28T04:39:23.679Z,0
2023-03-28T04:40:29.843Z,0
2023-03-28T04:41:35.980Z,0
2023-03-28T04:42:42.115Z,0
2023-03-28T04:43:48.266Z,0
2023-03-28T04:44:54.403Z,0
2023-03-28T04:46:00.545Z,0
2023-03-28T04:47:06.691Z,0
2023-03-28T04:48:12.834Z,4
2023-03-28T04:50:24.146Z,4
2023-03-28T04:51:30.283Z,0
2023-03-28T04:52:36.425Z,4
2023-03-28T04:53:42.566Z,4
2023-03-28T04:54:48.717Z,4
2023-03-28T04:55:54.853Z,8
2023-03-28T04:58:06.180Z,8
2023-03-28T04:59:12.443Z,12
2023-03-28T05:00:18.591Z,16
2023-03-28T05:01:24.724Z,16
2023-03-28T05:02:30.873Z,24
2023-03-28T05:03:37.003Z,28
2023-03-28T05:04:43.159Z,28
2023-03-28T05:06:55.450Z,44
2023-03-28T05:08:01.602Z,48
2023-03-28T05:09:07.726Z,56
2023-03-28T05:10:13.869Z,68
2023-03-28T05:11:20.025Z,76
2023-03-28T05:12:26.157Z,88
2023-03-28T05:13:31.355Z,100
2023-03-28T05:14:37.470Z,112
2023-03-28T05:15:43.611Z,128
2023-03-28T05:16:49.745Z,140
2023-03-28T05:17:55.930Z,156
2023-03-28T05:19:02.038Z,172
2023-03-28T05:20:08.197Z,188
2023-03-28T05:23:25.632Z,244
2023-03-28T05:24:30.806Z,264
2023-03-28T05:25:36.941Z,284
2023-03-28T05:26:43.083Z,308
2023-03-28T05:27:49.234Z,332
2023-03-28T05:28:55.378Z,356
2023-03-28T05:30:01.510Z,376
2023-03-28T05:31:07.682Z,400
2023-03-28T05:32:13.806Z,424
2023-03-28T05:33:19.958Z,452
2023-03-28T05:34:26.096Z,480
2023-03-28T05:35:32.288Z,508
2023-03-28T05:36:38.370Z,532
2023-03-28T05:37:44.527Z,556
2023-03-28T05:39:55.841Z,612
2023-03-28T05:41:01.973Z,640
2023-03-28T05:42:08.114Z,668
2023-03-28T05:43:14.259Z,692
2023-03-28T05:44:20.409Z,716
2023-03-28T05:45:26.561Z,744
2023-03-28T05:46:31.721Z,768
2023-03-28T05:47:36.884Z,796
2023-03-28T05:48:43.046Z,820
2023-03-28T05:50:55.307Z,872
2023-03-28T05:52:01.466Z,892
2023-03-28T05:53:07.600Z,920
2023-03-28T05:54:13.745Z,940
2023-03-28T05:56:26.030Z,988
2023-03-28T05:57:32.179Z,1012
2023-03-28T05:58:38.315Z,1040
2023-03-28T06:00:50.594Z,1084
2023-03-28T06:01:55.773Z,1108
2023-03-28T06:03:00.954Z,1136
2023-03-28T06:04:07.077Z,1152
2023-03-28T06:05:13.248Z,1176
2023-03-28T06:06:19.370Z,1200
2023-03-28T06:07:25.511Z,1224
2023-03-28T06:08:31.657Z,1256
2023-03-28T06:09:37.794Z,1288
2023-03-28T06:10:43.945Z,1320
2023-03-28T06:12:56.223Z,1364
2023-03-28T06:14:02.372Z,1380
2023-03-28T06:15:08.527Z,1396
2023-03-28T06:17:21.006Z,1432
2023-03-28T06:18:27.084Z,1452
2023-03-28T06:19:32.232Z,1468
2023-03-28T06:21:44.522Z,1508
2023-03-28T06:22:50.671Z,1528
2023-03-28T06:23:56.800Z,1548
2023-03-28T06:25:02.973Z,1584
2023-03-28T06:26:09.104Z,1640
2023-03-28T06:27:15.282Z,1704
2023-03-28T06:29:27.586Z,1824
2023-03-28T06:30:33.671Z,1880
2023-03-28T06:31:39.809Z,1932
2023-03-28T06:32:45.953Z,1988
2023-03-28T06:33:51.114Z,2048
2023-03-28T06:34:57.292Z,2112
2023-03-28T06:36:03.433Z,2192
2023-03-28T06:37:09.607Z,2244
2023-03-28T06:38:15.715Z,2244
2023-03-28T06:39:21.844Z,2220
2023-03-28T06:40:27.981Z,2228
2023-03-28T06:41:34.145Z,2276
2023-03-28T06:42:40.280Z,2360
2023-03-28T06:43:46.418Z,2412
2023-03-28T06:45:57.775Z,2344
2023-03-28T06:47:02.925Z,2284
2023-03-28T06:48:09.023Z,2252
2023-03-28T06:51:27.463Z,2284
2023-03-28T06:52:33.606Z,2292
2023-03-28T06:53:39.757Z,2296
2023-03-28T06:54:45.898Z,2312
2023-03-28T06:55:52.071Z,2320
2023-03-28T06:56:58.173Z,2324
2023-03-28T06:58:04.319Z,2336
2023-03-28T06:59:10.452Z,2344
2023-03-28T07:00:15.640Z,2360
2023-03-28T07:02:27.931Z,2396
2023-03-28T07:03:34.062Z,2416
2023-03-28T07:04:40.234Z,2432
2023-03-28T07:05:46.384Z,2456
2023-03-28T07:06:52.512Z,2484
2023-03-28T07:07:58.633Z,2524
2023-03-28T07:09:04.780Z,2568
2023-03-28T07:10:10.940Z,2612
2023-03-28T07:11:17.069Z,2648
2023-03-28T07:12:23.228Z,2688
2023-03-28T07:14:35.512Z,2792
2023-03-28T07:16:46.804Z,2868
2023-03-28T07:18:59.094Z,2964
2023-03-28T07:20:05.242Z,3004
2023-03-28T07:21:11.388Z,3064
2023-03-28T07:22:17.629Z,3208
2023-03-28T07:23:23.689Z,3376
2023-03-28T07:24:29.849Z,3516
2023-03-28T07:25:35.964Z,3604
2023-03-28T07:26:42.096Z,3556
2023-03-28T07:27:48.249Z,3508
2023-03-28T07:30:00.540Z,3608
2023-03-28T07:31:05.716Z,3708
2023-03-28T07:32:11.846Z,3872
2023-03-28T07:33:18.004Z,4124
2023-03-28T07:35:30.296Z,4460
2023-03-28T07:36:36.421Z,4736
2023-03-28T07:37:42.549Z,5060
2023-03-28T07:38:48.699Z,5336
2023-03-28T07:39:54.841Z,5728
2023-03-28T07:41:00.977Z,5948
2023-03-28T07:44:19.417Z,6268
2023-03-28T07:45:25.558Z,5116
2023-03-28T07:46:30.720Z,5592
2023-03-28T07:47:36.866Z,6308
2023-03-28T07:48:43.003Z,6484
2023-03-28T07:49:49.160Z,7420
2023-03-28T07:52:01.446Z,5396
2023-03-28T07:53:07.597Z,5164
2023-03-28T07:54:13.716Z,6708
2023-03-28T07:55:19.863Z,9612
2023-03-28T07:56:26.009Z,7228
2023-03-28T07:57:32.161Z,10892
2023-03-28T07:58:38.319Z,10896
2023-03-28T08:00:50.600Z,10420
2023-03-28T08:01:55.804Z,13356
2023-03-28T08:03:01.955Z,6680
2023-03-28T08:04:08.090Z,8096
2023-03-28T08:05:14.202Z,6316
2023-03-28T08:06:20.349Z,13100
2023-03-28T08:08:32.600Z,5796
2023-03-28T08:09:38.744Z,6588
2023-03-28T08:10:44.894Z,25920
2023-03-28T08:11:51.041Z,30720
2023-03-28T08:12:57.164Z,31264
2023-03-28T08:14:03.343Z,29600
2023-03-28T08:15:09.464Z,18048
2023-03-28T08:16:14.647Z,12312
2023-03-28T08:17:20.795Z,16768
2023-03-28T08:18:26.928Z,11172
2023-03-28T08:20:39.193Z,10696
2023-03-28T08:21:45.329Z,10136
2023-03-28T08:22:51.476Z,9712
2023-03-28T08:25:03.786Z,9972
2023-03-28T08:26:09.922Z,10420
2023-03-28T08:27:16.079Z,13676
2023-03-28T08:28:22.211Z,18240
2023-03-28T08:29:28.342Z,15648
2023-03-28T08:30:33.496Z,15680
2023-03-28T08:31:39.645Z,14120
2023-03-28T08:32:45.777Z,17440
2023-03-28T08:33:51.931Z,18368
2023-03-28T08:34:58.071Z,23808
2023-03-28T08:36:04.226Z,19136
2023-03-28T08:37:10.365Z,21440
2023-03-28T08:38:16.553Z,23648
2023-03-28T08:39:22.638Z,24448
2023-03-28T08:42:41.086Z,31392
2023-03-28T08:43:47.227Z,29856
2023-03-28T08:44:52.392Z,34656
2023-03-28T08:45:58.519Z,43232
2023-03-28T08:47:04.661Z,46496
2023-03-28T08:48:10.800Z,46656
2023-03-28T08:49:16.962Z,45600
2023-03-28T08:50:23.096Z,8548
2023-03-28T08:51:29.236Z,47456
2023-03-28T08:53:41.552Z,12624
2023-03-28T08:55:53.841Z,7524
2023-03-28T08:58:06.087Z,7732
2023-03-28T08:59:11.261Z,19168
2023-03-28T09:00:17.417Z,14040
2023-03-28T09:01:23.530Z,10648
2023-03-28T09:02:29.699Z,8320
2023-03-28T09:03:35.840Z,6656
2023-03-28T09:04:42.000Z,5732
2023-03-28T09:05:48.131Z,5900
2023-03-28T09:06:54.255Z,6916
2023-03-28T09:08:00.429Z,23456
2023-03-28T09:09:06.554Z,23456
2023-03-28T09:10:12.693Z,36896
2023-03-28T09:11:18.829Z,54272
2023-03-28T09:12:24.997Z,55040
2023-03-28T09:15:42.417Z,54784
2023-03-28T09:16:48.553Z,53376
2023-03-28T09:17:54.702Z,12184
2023-03-28T09:19:00.843Z,12940
2023-03-28T09:20:06.983Z,9324
2023-03-28T09:21:13.193Z,10764
2023-03-28T09:22:19.280Z,12336
2023-03-28T09:23:25.412Z,35680
2023-03-28T09:24:31.557Z,19296
2023-03-28T09:25:37.699Z,7304
2023-03-28T09:26:43.838Z,11024
2023-03-28T09:27:49.007Z,52832
2023-03-28T09:31:07.473Z,59264
2023-03-28T09:32:13.572Z,59744
2023-03-28T09:33:19.718Z,60064
2023-03-28T09:34:25.869Z,60736
2023-03-28T09:35:32.003Z,59264
2023-03-28T09:36:38.149Z,60416
2023-03-28T09:37:44.337Z,59456
2023-03-28T09:38:50.428Z,59296
2023-03-28T09:39:56.572Z,59744
2023-03-28T09:41:02.771Z,59424
2023-03-28T09:42:08.884Z,58656
2023-03-28T09:43:14.029Z,59360
2023-03-28T09:44:20.167Z,64416
2023-03-28T09:45:26.300Z,832
2023-03-28T09:47:38.591Z,3200
2023-03-28T09:48:44.731Z,65280
2023-03-28T09:49:50.904Z,1696
2023-03-28T09:50:57.057Z,11868
2023-03-28T09:52:03.162Z,32384
2023-03-28T09:53:09.306Z,224
2023-03-28T09:54:14.502Z,65248
2023-03-28T09:55:19.635Z,2592
2023-03-28T09:56:25.789Z,3104
2023-03-28T09:57:31.934Z,8260
2023-03-28T09:58:38.076Z,9208
2023-03-28T09:59:44.209Z,11028
2023-03-28T10:00:50.415Z,12496
2023-03-28T10:01:56.550Z,448
2023-03-28T10:04:08.789Z,4480
2023-03-28T10:05:14.938Z,1952
2023-03-28T10:06:21.066Z,5568
2023-03-28T10:07:27.213Z,6176
2023-03-28T10:08:33.345Z,8096
2023-03-28T10:09:38.559Z,6144
2023-03-28T10:10:44.685Z,58144
2023-03-28T10:11:50.801Z,10592
2023-03-28T10:12:56.941Z,5408
2023-03-28T10:14:03.174Z,8384
2023-03-28T10:15:09.244Z,4800
2023-03-28T10:16:15.378Z,8224
2023-03-28T10:17:21.516Z,11808
2023-03-28T10:18:26.693Z,7872
2023-03-28T10:20:38.002Z,7744
2023-03-28T10:21:44.137Z,6976
2023-03-28T10:22:50.277Z,6752
2023-03-28T10:23:56.462Z,448
2023-03-28T10:25:02.574Z,5728
2023-03-28T10:26:08.777Z,5184
2023-03-28T10:27:14.840Z,14624
2023-03-28T10:28:21.010Z,64384
2023-03-28T10:29:27.140Z,64928
2023-03-28T10:30:33.279Z,992
2023-03-28T10:32:45.620Z,3808
2023-03-28T10:33:50.733Z,4064
2023-03-28T10:34:56.869Z,2368
2023-03-28T10:37:09.157Z,5056
2023-03-28T10:38:14.326Z,3168
2023-03-28T10:40:25.672Z,8448
2023-03-28T10:41:30.893Z,1216
2023-03-28T10:42:36.930Z,960
2023-03-28T10:43:43.139Z,64896
2023-03-28T10:44:49.232Z,63136
2023-03-28T10:45:55.395Z,61600
2023-03-28T10:47:01.511Z,6144
2023-03-28T10:48:07.643Z,6368
2023-03-28T10:49:13.795Z,64672
2023-03-28T10:53:38.383Z,4320
2023-03-28T10:54:43.551Z,992
2023-03-28T10:55:48.783Z,59680
2023-03-28T10:56:54.964Z,1024
2023-03-28T10:58:00.979Z,1408
2023-03-28T10:59:07.140Z,57920
2023-03-28T11:00:13.306Z,55136
2023-03-28T11:01:19.503Z,61472
2023-03-28T11:02:25.700Z,512
2023-03-28T11:03:31.704Z,2592
2023-03-28T11:04:37.897Z,58240
2023-03-28T11:05:43.984Z,53216
2023-03-28T11:06:49.163Z,55520
2023-03-28T11:07:54.320Z,53088
2023-03-28T11:10:06.603Z,49664
2023-03-28T11:11:12.886Z,41440
2023-03-28T11:12:19.035Z,50336
2023-03-28T11:13:25.139Z,52416
2023-03-28T11:14:31.307Z,47648
2023-03-28T11:15:37.317Z,51744
2023-03-28T11:16:43.497Z,49088
2023-03-28T11:18:55.759Z,53312
2023-03-28T11:21:08.099Z,61184
2023-03-28T11:22:13.207Z,56192
2023-03-28T11:23:18.372Z,52544
2023-03-28T11:24:24.554Z,50432
2023-03-28T11:26:36.796Z,47904
2023-03-28T11:28:49.074Z,50816
2023-03-28T11:29:55.228Z,39840
2023-03-28T11:31:01.376Z,37472
2023-03-28T11:32:07.522Z,35936
2023-03-28T11:33:13.691Z,40512
2023-03-28T11:34:19.794Z,37792
2023-03-28T11:35:25.991Z,36864
2023-03-28T11:36:32.096Z,47808
2023-03-28T11:38:43.394Z,65152
2023-03-28T11:39:49.536Z,6432
2023-03-28T11:40:55.671Z,10848
2023-03-28T11:43:08.007Z,62080
2023-03-28T11:45:20.238Z,53312
2023-03-28T11:46:26.387Z,48032
2023-03-28T11:47:32.546Z,49152
2023-03-28T11:48:38.663Z,52544
2023-03-28T11:49:44.812Z,55168
2023-03-28T11:50:50.957Z,58080
2023-03-28T11:51:56.106Z,57888
2023-03-28T11:53:02.265Z,59872
2023-03-28T11:54:08.447Z,59360
2023-03-28T11:55:14.549Z,62880
2023-03-28T11:56:20.719Z,64352
2023-03-28T11:57:26.868Z,128
2023-03-28T11:59:39.107Z,2112
2023-03-28T12:00:45.280Z,64000
2023-03-28T12:01:51.394Z,42240
2023-03-28T12:02:57.545Z,9568
2023-03-28T12:04:03.768Z,8040
2023-03-28T12:05:09.824Z,7352
2023-03-28T12:06:15.014Z,7032
2023-03-28T12:07:21.151Z,6900
2023-03-28T12:09:32.453Z,6844
2023-03-28T12:11:43.750Z,6900
2023-03-28T12:12:49.903Z,6828
2023-03-28T12:13:56.074Z,6672
2023-03-28T12:16:08.316Z,6428
2023-03-28T12:18:20.599Z,6268
2023-03-28T12:19:26.739Z,6092
2023-03-28T12:21:39.055Z,6004
2023-03-28T12:22:45.171Z,5912
2023-03-28T12:24:57.601Z,5752
2023-03-28T12:26:02.681Z,5736
2023-03-28T12:28:14.904Z,5644
2023-03-28T12:30:27.186Z,5860
2023-03-28T12:32:39.491Z,6736
2023-03-28T12:33:45.629Z,6100
2023-03-28T12:34:51.782Z,6188
2023-03-28T12:35:57.984Z,6492
2023-03-28T12:37:04.055Z,6380
2023-03-28T12:38:10.193Z,6464
2023-03-28T12:39:16.332Z,7492
2023-03-28T12:41:27.635Z,10224
2023-03-28T12:42:33.772Z,11068
2023-03-28T12:43:39.938Z,11132
2023-03-28T12:44:46.076Z,10988
2023-03-28T12:45:52.218Z,10264
2023-03-28T12:46:58.344Z,9992
2023-03-28T12:49:10.632Z,9096
2023-03-28T12:50:16.787Z,9340
2023-03-28T12:51:22.925Z,9976
2023-03-28T12:52:29.072Z,10068
2023-03-28T12:53:35.210Z,9640
2023-03-28T12:54:40.364Z,9520
2023-03-28T12:55:46.506Z,9236
2023-03-28T12:56:52.648Z,9004
2023-03-28T12:59:04.954Z,10744
2023-03-28T13:00:11.085Z,11464
2023-03-28T13:01:17.244Z,12224
2023-03-28T13:02:23.372Z,12560
2023-03-28T13:03:29.506Z,12308
2023-03-28T13:05:41.805Z,11752
2023-03-28T13:06:47.931Z,11732
2023-03-28T13:07:54.082Z,11868
2023-03-28T13:08:59.257Z,11872
2023-03-28T13:10:05.414Z,11708
2023-03-28T13:11:11.575Z,11456
2023-03-28T13:12:17.667Z,11512
2023-03-28T13:13:23.826Z,11772
2023-03-28T13:14:29.978Z,12020
2023-03-28T13:15:36.116Z,12244
2023-03-28T13:17:48.398Z,12520
2023-03-28T13:18:54.597Z,12024
2023-03-28T13:20:00.681Z,11484
2023-03-28T13:22:12.961Z,11088
2023-03-28T13:24:25.264Z,10744
2023-03-28T13:25:30.412Z,10660
2023-03-28T13:26:36.556Z,10732
2023-03-28T13:27:42.682Z,10544
2023-03-28T13:28:48.835Z,10156
2023-03-28T13:29:54.978Z,9916
2023-03-28T13:31:01.133Z,9456
2023-03-28T13:32:07.255Z,8652
2023-03-28T13:33:13.421Z,8112
2023-03-28T13:34:19.554Z,7600
2023-03-28T13:35:25.698Z,7156
2023-03-28T13:36:31.850Z,6620
2023-03-28T13:38:44.120Z,5800
2023-03-28T13:39:49.280Z,5588
2023-03-28T13:40:55.431Z,5492
2023-03-28T13:43:07.710Z,5512
2023-03-28T13:44:13.846Z,5392
2023-03-28T13:45:20.002Z,5128
2023-03-28T13:46:26.142Z,5120
2023-03-28T13:47:32.297Z,5204
2023-03-28T13:49:44.567Z,4948
2023-03-28T13:50:50.733Z,4908
2023-03-28T13:51:56.850Z,5036
2023-03-28T13:53:02.998Z,5088
2023-03-28T13:55:14.295Z,4592
2023-03-28T13:56:20.438Z,4300
2023-03-28T13:57:26.582Z,3984
2023-03-28T13:58:32.727Z,3744
2023-03-28T13:59:38.878Z,3628
2023-03-28T14:00:45.005Z,3504
2023-03-28T14:01:51.154Z,3420
2023-03-28T14:02:57.297Z,3372
2023-03-28T14:04:03.446Z,3328
2023-03-28T14:05:09.590Z,3308
2023-03-28T14:07:21.875Z,3308
2023-03-28T14:08:27.032Z,3388
2023-03-28T14:09:33.171Z,3424
2023-03-28T14:11:45.525Z,4044
2023-03-28T14:12:51.609Z,4272
2023-03-28T14:13:57.754Z,4080
2023-03-28T14:15:03.901Z,3572
2023-03-28T14:16:10.059Z,2932
2023-03-28T14:17:16.181Z,2796
2023-03-28T14:19:28.475Z,3084
2023-03-28T14:20:34.603Z,3100
2023-03-28T14:21:40.770Z,3104
2023-03-28T14:22:45.927Z,3064
2023-03-28T14:23:52.066Z,3040
2023-03-28T14:24:58.306Z,3040
2023-03-28T14:26:04.406Z,3092
2023-03-28T14:28:16.627Z,3292
2023-03-28T14:29:22.783Z,3420
2023-03-28T14:30:28.934Z,3476
2023-03-28T14:31:35.063Z,3524
2023-03-28T14:32:41.212Z,3276
2023-03-28T14:33:47.357Z,3316
2023-03-28T14:38:11.936Z,3108
2023-03-28T14:39:17.077Z,2980
2023-03-28T14:40:23.253Z,3144
2023-03-28T14:42:35.519Z,3468
2023-03-28T14:44:47.804Z,3644
2023-03-28T14:45:53.945Z,3596
2023-03-28T14:47:00.098Z,3528
2023-03-28T14:49:12.365Z,3348
2023-03-28T14:50:18.510Z,3336
2023-03-28T14:51:24.689Z,3400
2023-03-28T14:52:30.795Z,3576
2023-03-28T14:53:35.991Z,3788
2023-03-28T14:54:42.131Z,4128
2023-03-28T14:55:48.246Z,4444
2023-03-28T14:56:54.392Z,4692
2023-03-28T14:58:00.518Z,4888
2023-03-28T15:01:18.960Z,5068
2023-03-28T15:02:25.107Z,5016
2023-03-28T15:03:31.251Z,4844
2023-03-28T15:04:37.387Z,4672
2023-03-28T15:05:43.542Z,4492
2023-03-28T15:06:49.677Z,4328
2023-03-28T15:07:54.845Z,4180
2023-03-28T15:09:00.986Z,4056
2023-03-28T15:10:07.111Z,3988
2023-03-28T15:11:13.265Z,3904
2023-03-28T15:13:25.561Z,3636
2023-03-28T15:14:31.704Z,3436
2023-03-28T15:15:37.977Z,3236
2023-03-28T15:17:50.125Z,2708
2023-03-28T15:18:56.268Z,2540
2023-03-28T15:20:02.408Z,2560
2023-03-28T15:21:08.580Z,2664
2023-03-28T15:22:13.716Z,2784
2023-03-28T15:23:19.853Z,2856
2023-03-28T15:24:26.010Z,2908
2023-03-28T15:25:32.141Z,2888
2023-03-28T15:26:38.277Z,2860
2023-03-28T15:27:44.440Z,2864
2023-03-28T15:28:50.565Z,2836
2023-03-28T15:29:56.707Z,2804
2023-03-28T15:31:02.857Z,2808
2023-03-28T15:32:09.019Z,2764
2023-03-28T15:34:21.287Z,2888
2023-03-28T15:35:27.434Z,3028
2023-03-28T15:36:33.562Z,3084
2023-03-28T15:37:38.721Z,3012
2023-03-28T15:38:44.874Z,2884
2023-03-28T15:39:51.018Z,2800
2023-03-28T15:40:56.212Z,2760
2023-03-28T15:42:01.406Z,2660
2023-03-28T15:43:07.512Z,2540
2023-03-28T15:44:13.641Z,2412
2023-03-28T15:45:19.782Z,2316
2023-03-28T15:46:25.915Z,2236
2023-03-28T15:47:32.082Z,2128
2023-03-28T15:48:38.203Z,2028
2023-03-28T15:50:50.507Z,1952
2023-03-28T15:51:56.645Z,1904
2023-03-28T15:53:02.785Z,1848
2023-03-28T15:54:08.933Z,1832
2023-03-28T15:55:15.137Z,1852
2023-03-28T15:56:20.214Z,1856
2023-03-28T15:58:32.508Z,1836
2023-03-28T15:59:38.802Z,1876
2023-03-28T16:00:43.981Z,1896
2023-03-28T16:01:50.105Z,1940
2023-03-28T16:02:56.249Z,1968
2023-03-28T16:04:02.386Z,1948
2023-03-28T16:05:08.538Z,1780
2023-03-28T16:07:20.858Z,1384
2023-03-28T16:08:27.035Z,1296
2023-03-28T16:09:33.096Z,1256
2023-03-28T16:10:39.290Z,1204
2023-03-28T16:12:51.550Z,1136
2023-03-28T16:13:57.702Z,1184
2023-03-28T16:15:02.845Z,1212
2023-03-28T16:16:08.980Z,1212
2023-03-28T16:17:15.146Z,1244
2023-03-28T16:18:21.281Z,1396
2023-03-28T16:19:27.417Z,1616
2023-03-28T16:20:33.559Z,1756
2023-03-28T16:21:39.695Z,1956
2023-03-28T16:23:51.991Z,2216
2023-03-28T16:24:58.140Z,2292
2023-03-28T16:26:04.268Z,2328
2023-03-28T16:27:10.418Z,2116
2023-03-28T16:28:16.580Z,2108
2023-03-28T16:29:22.809Z,2088
2023-03-28T16:30:28.962Z,2064
2023-03-28T16:31:35.111Z,2048
2023-03-28T16:32:41.259Z,2000
2023-03-28T16:33:47.403Z,1936
2023-03-28T16:34:53.540Z,1900
2023-03-28T16:35:58.705Z,1860
2023-03-28T16:37:04.971Z,2032
2023-03-28T16:38:11.114Z,2016
2023-03-28T16:40:23.403Z,1832
2023-03-28T16:41:29.545Z,1752
2023-03-28T16:42:35.683Z,1732
2023-03-28T16:43:41.849Z,1780
2023-03-28T16:44:47.972Z,1732
2023-03-28T16:45:54.106Z,1584
2023-03-28T16:47:00.279Z,1424
2023-03-28T16:48:06.404Z,1236
2023-03-28T16:50:18.690Z,1072
2023-03-28T16:51:23.864Z,1048
2023-03-28T16:52:29.020Z,1056
2023-03-28T16:53:35.166Z,1076
2023-03-28T16:54:41.307Z,1092
2023-03-28T16:56:53.593Z,1072
2023-03-28T16:57:59.738Z,1056
2023-03-28T16:59:05.872Z,1032
2023-03-28T17:01:18.166Z,920
2023-03-28T17:02:24.307Z,824
2023-03-28T17:03:30.450Z,756
2023-03-28T17:04:36.595Z,720
2023-03-28T17:05:42.733Z,724
2023-03-28T17:06:49.009Z,776
2023-03-28T17:09:01.288Z,732
2023-03-28T17:10:07.443Z,620
2023-03-28T17:11:13.575Z,524
2023-03-28T17:13:25.864Z,436
2023-03-28T17:14:32.000Z,420
2023-03-28T17:15:38.144Z,408
2023-03-28T17:16:44.290Z,396
2023-03-28T17:17:50.475Z,396
2023-03-28T17:18:56.582Z,388
2023-03-28T17:20:02.725Z,364
2023-03-28T17:21:07.877Z,336
2023-03-28T17:22:14.021Z,308
2023-03-28T17:23:20.168Z,288
2023-03-28T17:25:32.451Z,260
2023-03-28T17:26:38.667Z,248
2023-03-28T17:27:44.744Z,232
2023-03-28T17:29:57.022Z,220
2023-03-28T17:32:09.306Z,192
2023-03-28T17:33:15.457Z,184
2023-03-28T17:34:21.608Z,172